createdAt,value
2019-06-26T00:00:58.917Z,4.27
2019-06-26T00:03:29.071Z,4.17
2019-06-26T00:05:58.753Z,4.73
2019-06-26T00:08:28.464Z,4.20
2019-06-26T00:10:58.330Z,5.77
2019-06-26T00:13:28.119Z,4.63
2019-06-26T00:15:58.011Z,4.97
2019-06-26T00:18:29.050Z,5.10
2019-06-26T00:20:58.877Z,3.93
2019-06-26T00:23:28.603Z,5.33
2019-06-26T00:25:58.362Z,4.17
2019-06-26T00:28:28.142Z,4.23
2019-06-26T00:30:57.920Z,4.20
2019-06-26T00:33:27.716Z,3.40
2019-06-26T00:35:57.478Z,5.03
2019-06-26T00:38:27.138Z,4.47
2019-06-26T00:40:57.023Z,4.40
2019-06-26T00:43:41.570Z,5.03
2019-06-26T00:45:59.501Z,4.20
2019-06-26T00:48:29.156Z,5.03
2019-06-26T00:50:58.856Z,5.10
2019-06-26T00:53:28.620Z,4.43
2019-06-26T00:55:58.713Z,4.30
2019-06-26T00:58:28.406Z,4.43
2019-06-26T01:00:58.427Z,4.60
2019-06-26T01:03:28.663Z,3.70
2019-06-26T01:05:58.849Z,4.20
2019-06-26T01:08:28.517Z,5.00
2019-06-26T01:10:58.501Z,4.30
2019-06-26T01:13:28.234Z,5.10
2019-06-26T01:15:57.986Z,4.13
2019-06-26T01:18:27.697Z,4.10
2019-06-26T01:20:57.677Z,3.87
2019-06-26T01:23:27.364Z,5.03
2019-06-26T01:25:57.071Z,4.53
2019-06-26T01:28:26.849Z,4.30
2019-06-26T01:30:56.979Z,4.57
2019-06-26T01:33:26.896Z,4.57
2019-06-26T01:35:56.651Z,4.47
2019-06-26T01:38:26.740Z,3.60
2019-06-26T01:40:56.430Z,4.60
2019-06-26T01:43:26.121Z,5.00
2019-06-26T01:45:55.812Z,4.60
2019-06-26T01:48:25.722Z,3.90
2019-06-26T01:50:55.428Z,5.23
2019-06-26T01:53:25.081Z,4.33
2019-06-26T01:55:54.802Z,4.10
2019-06-26T01:58:24.526Z,4.23
2019-06-26T02:00:54.191Z,4.30
2019-06-26T02:03:23.908Z,4.60
2019-06-26T02:05:53.657Z,3.93
2019-06-26T02:08:23.393Z,4.37
2019-06-26T02:10:53.084Z,3.30
2019-06-26T02:13:22.770Z,3.80
2019-06-26T02:15:52.449Z,4.37
2019-06-26T02:18:34.528Z,3.83
2019-06-26T02:21:04.221Z,2.97
2019-06-26T02:23:33.916Z,2.97
2019-06-26T02:26:03.711Z,3.70
2019-06-26T02:28:33.391Z,3.63
2019-06-26T02:31:03.064Z,3.70
2019-06-26T02:33:32.761Z,3.77
2019-06-26T02:36:02.427Z,3.73
2019-06-26T02:38:32.116Z,3.77
2019-06-26T02:41:01.818Z,3.77
2019-06-26T02:43:31.502Z,3.73
2019-06-26T02:46:01.215Z,3.80
2019-06-26T02:48:30.881Z,4.23
2019-06-26T02:51:00.631Z,3.33
2019-06-26T02:53:30.302Z,3.43
2019-06-26T02:56:00.001Z,3.73
2019-06-26T02:58:29.676Z,2.97
2019-06-26T03:00:59.356Z,3.47
2019-06-26T03:03:29.453Z,3.90
2019-06-26T03:05:59.217Z,3.83
2019-06-26T03:08:29.066Z,4.27
2019-06-26T03:10:58.774Z,4.37
2019-06-26T03:13:28.548Z,3.80
2019-06-26T03:15:59.382Z,4.13
2019-06-26T03:18:29.113Z,4.43
2019-06-26T03:20:58.810Z,3.90
2019-06-26T03:23:28.547Z,3.73
2019-06-26T03:25:58.273Z,3.87
2019-06-26T03:28:28.044Z,3.33
2019-06-26T03:30:57.740Z,4.23
2019-06-26T03:33:27.441Z,4.13
2019-06-26T03:35:57.197Z,3.37
2019-06-26T03:38:26.998Z,3.17
2019-06-26T03:40:56.722Z,4.23
2019-06-26T03:43:26.446Z,3.67
2019-06-26T03:45:56.219Z,4.43
2019-06-26T03:48:25.926Z,4.13
2019-06-26T03:50:56.038Z,4.53
2019-06-26T03:53:25.737Z,3.93
2019-06-26T03:55:55.420Z,4.23
2019-06-26T03:58:25.157Z,4.17
2019-06-26T04:00:54.832Z,3.97
2019-06-26T04:03:24.583Z,4.57
2019-06-26T04:05:54.602Z,4.33
2019-06-26T04:08:24.651Z,4.17
2019-06-26T04:10:54.322Z,4.07
2019-06-26T04:13:24.097Z,4.17
2019-06-26T04:15:53.776Z,4.43
2019-06-26T04:18:23.480Z,4.30
2019-06-26T04:20:53.162Z,3.83
2019-06-26T04:23:23.059Z,3.97
2019-06-26T04:25:53.008Z,4.73
2019-06-26T04:28:23.029Z,4.53
2019-06-26T04:30:52.731Z,4.27
2019-06-26T04:33:22.405Z,4.13
2019-06-26T04:35:52.102Z,4.40
2019-06-26T04:38:21.882Z,4.27
2019-06-26T04:40:51.570Z,4.47
2019-06-26T04:43:22.344Z,4.67
2019-06-26T04:45:58.052Z,4.30
2019-06-26T04:48:23.838Z,3.53
2019-06-26T04:50:54.705Z,4.67
2019-06-26T04:53:25.183Z,4.57
2019-06-26T04:55:54.896Z,5.27
2019-06-26T04:58:24.573Z,3.73
2019-06-26T05:00:55.561Z,5.00
2019-06-26T05:03:25.321Z,4.13
2019-06-26T05:05:55.399Z,3.97
2019-06-26T05:08:25.269Z,4.43
2019-06-26T05:10:54.967Z,4.30
2019-06-26T05:13:25.081Z,4.00
2019-06-26T05:15:54.827Z,3.40
2019-06-26T05:18:24.935Z,3.37
2019-06-26T05:20:54.627Z,3.37
2019-06-26T05:23:24.305Z,3.13
2019-06-26T05:25:53.981Z,2.67
2019-06-26T05:28:23.697Z,2.90
2019-06-26T05:30:53.443Z,2.87
2019-06-26T05:33:23.457Z,3.10
2019-06-26T05:35:53.200Z,3.33
2019-06-26T05:38:22.899Z,3.23
2019-06-26T05:40:52.693Z,3.33
2019-06-26T05:43:22.498Z,2.70
2019-06-26T05:45:52.641Z,3.33
2019-06-26T05:48:22.356Z,3.13
2019-06-26T05:50:52.153Z,3.67
2019-06-26T05:53:21.847Z,2.50
2019-06-26T08:49:25.656Z,4.00
2019-06-26T08:51:51.631Z,3.87
2019-06-26T08:54:21.426Z,4.22
2019-06-26T08:56:51.094Z,4.17
2019-06-26T08:59:20.864Z,3.70
2019-06-26T09:01:50.558Z,5.37
2019-06-26T09:04:20.329Z,4.40
2019-06-26T09:06:50.093Z,3.80
2019-06-26T09:09:19.788Z,4.40
2019-06-26T09:11:49.684Z,4.30
2019-06-26T09:14:19.717Z,4.00
2019-06-26T09:16:49.480Z,4.42
2019-06-26T09:19:19.273Z,4.57
2019-06-26T09:21:48.976Z,4.00
2019-06-26T09:24:18.646Z,4.17
2019-06-26T09:26:48.358Z,4.47
2019-06-26T09:29:18.922Z,3.77
2019-06-26T09:31:48.612Z,4.78
2019-06-26T09:34:18.361Z,3.75
2019-06-26T09:36:48.073Z,3.45
2019-06-26T09:39:17.821Z,3.87
2019-06-26T09:41:47.510Z,4.50
2019-06-26T09:44:17.197Z,4.92
2019-06-26T09:46:46.916Z,4.55
2019-06-26T09:49:16.584Z,4.97
2019-06-26T09:51:46.286Z,4.55
2019-06-26T09:54:16.092Z,4.15
2019-06-26T09:56:45.802Z,5.67
2019-06-26T09:59:15.519Z,4.67
2019-06-26T10:01:45.584Z,4.10
2019-06-26T10:04:15.320Z,4.58
2019-06-26T10:06:45.053Z,4.60
2019-06-26T10:09:14.723Z,4.75
2019-06-26T10:11:44.443Z,4.00
2019-06-26T10:14:14.143Z,4.70
2019-06-26T10:16:43.870Z,4.92
2019-06-26T10:19:13.535Z,4.03
2019-06-26T10:21:43.219Z,5.47
2019-06-26T10:24:12.894Z,4.85
2019-06-26T10:26:42.692Z,4.50
2019-06-26T10:29:12.741Z,4.87
2019-06-26T10:31:42.574Z,5.50
2019-06-26T10:34:12.338Z,4.90
2019-06-26T10:36:42.009Z,5.00
2019-06-26T10:39:11.688Z,4.50
2019-06-26T10:41:41.704Z,5.47
2019-06-26T10:44:11.478Z,4.50
2019-06-26T10:46:41.301Z,4.90
2019-06-26T10:49:25.774Z,4.72
2019-06-26T10:51:42.621Z,5.05
2019-06-26T10:54:12.320Z,4.78
2019-06-26T10:56:42.014Z,5.15
2019-06-26T10:59:11.748Z,5.00
2019-06-26T11:01:41.461Z,4.22
2019-06-26T11:04:11.123Z,5.12
2019-06-26T11:06:40.849Z,5.45
2019-06-26T11:09:10.561Z,5.42
2019-06-26T11:11:40.245Z,5.35
2019-06-26T11:14:10.149Z,4.83
2019-06-26T11:16:39.866Z,4.60
2019-06-26T11:19:11.085Z,5.05
2019-06-26T11:21:40.769Z,5.28
2019-06-26T11:24:10.995Z,5.67
2019-06-26T11:26:40.672Z,4.62
2019-06-26T11:29:10.709Z,4.75
2019-06-26T11:31:40.384Z,4.55
2019-06-26T11:34:10.051Z,5.53
2019-06-26T11:36:40.045Z,5.22
2019-06-26T11:39:09.884Z,5.25
2019-06-26T11:41:39.853Z,4.95
2019-06-26T11:44:09.846Z,4.87
2019-06-26T11:46:39.573Z,5.40
2019-06-26T11:49:09.285Z,5.40
2019-06-26T11:51:38.957Z,5.42
2019-06-26T11:54:08.677Z,5.33
2019-06-26T11:56:39.752Z,5.12
2019-06-26T11:59:09.457Z,5.22
2019-06-26T12:01:39.241Z,5.20
2019-06-26T12:04:09.364Z,5.50
2019-06-26T12:06:40.692Z,5.30
2019-06-26T12:09:10.457Z,5.58
2019-06-26T12:11:40.247Z,4.95
2019-06-26T12:14:09.924Z,5.75
2019-06-26T12:16:39.603Z,4.92
2019-06-26T12:19:09.306Z,5.00
2019-06-26T12:21:38.985Z,4.75
2019-06-26T12:24:08.686Z,4.80
2019-06-26T12:26:38.519Z,5.37
2019-06-26T12:29:08.241Z,5.72
2019-06-26T12:31:38.001Z,5.75
2019-06-26T12:34:07.750Z,5.45
2019-06-26T12:36:37.454Z,5.28
2019-06-26T12:39:07.345Z,4.75
2019-06-26T12:41:37.411Z,5.35
2019-06-26T12:44:07.121Z,5.42
2019-06-26T12:46:36.837Z,5.50
2019-06-26T12:49:06.554Z,5.20
2019-06-26T12:51:36.221Z,4.90
2019-06-26T12:54:06.260Z,5.78
2019-06-26T12:56:36.028Z,5.62
2019-06-26T12:59:05.685Z,5.28
2019-06-26T13:01:35.444Z,5.58
2019-06-26T13:04:05.132Z,6.30
2019-06-26T13:06:34.824Z,5.12
2019-06-26T13:09:05.726Z,5.67
2019-06-26T13:11:35.418Z,7.03
2019-06-26T13:14:05.112Z,6.15
2019-06-26T13:16:34.836Z,6.28
2019-06-26T13:19:04.580Z,6.03
2019-06-26T13:21:34.312Z,6.15
2019-06-26T13:24:03.989Z,6.65
2019-06-26T13:26:33.672Z,6.65
2019-06-26T13:29:03.371Z,7.45
2019-06-26T13:31:33.029Z,7.05
2019-06-26T13:34:02.703Z,7.10
2019-06-26T13:36:32.846Z,7.08
2019-06-26T13:39:02.854Z,6.50
2019-06-26T13:41:33.685Z,7.22
2019-06-26T13:44:03.424Z,6.72
2019-06-26T13:46:33.180Z,7.12
2019-06-26T13:49:02.867Z,6.17
2019-06-26T13:51:32.561Z,6.15
2019-06-26T13:54:02.324Z,6.60
2019-06-26T13:56:32.117Z,6.05
2019-06-26T13:59:01.783Z,6.75
2019-06-26T14:01:31.542Z,5.72
2019-06-26T14:04:01.204Z,5.75
2019-06-26T14:06:30.890Z,6.40
2019-06-26T14:09:00.574Z,6.53
2019-06-26T14:11:31.932Z,6.37
2019-06-26T14:14:01.622Z,6.35
2019-06-26T14:16:31.317Z,6.22
2019-06-26T14:19:01.029Z,6.65
2019-06-26T14:21:30.830Z,6.97
2019-06-26T14:24:00.521Z,6.10
2019-06-26T14:26:30.188Z,6.22
2019-06-26T14:28:59.866Z,6.12
2019-06-26T14:31:29.555Z,6.08
2019-06-26T14:33:59.510Z,6.17
2019-06-26T14:36:29.271Z,6.20
2019-06-26T14:38:59.123Z,6.40
2019-06-26T14:41:28.850Z,5.75
2019-06-26T14:43:58.557Z,5.97
2019-06-26T14:46:28.286Z,5.35
2019-06-26T14:48:58.194Z,6.60
2019-06-26T14:51:41.837Z,6.20
2019-06-26T14:53:59.311Z,6.33
2019-06-26T14:56:29.025Z,5.60
2019-06-26T14:58:58.706Z,5.97
2019-06-26T15:01:28.389Z,5.58
2019-06-26T15:03:58.066Z,4.90
2019-06-26T15:06:27.867Z,5.40
2019-06-26T15:08:57.519Z,5.17
2019-06-26T15:11:27.546Z,5.08
2019-06-26T15:13:57.658Z,5.55
2019-06-26T15:16:30.287Z,4.67
2019-06-26T15:18:58.805Z,5.37
2019-06-26T15:21:28.477Z,5.15
2019-06-26T15:23:58.158Z,5.12
2019-06-26T15:26:27.826Z,5.10
2019-06-26T15:28:58.565Z,5.58
2019-06-26T15:31:28.244Z,5.50
2019-06-26T15:33:57.943Z,5.12
2019-06-26T15:36:27.619Z,4.95
2019-06-26T15:38:59.233Z,4.85
2019-06-26T15:41:29.057Z,6.03
2019-06-26T15:43:59.809Z,5.03
2019-06-26T15:46:29.477Z,4.65
2019-06-26T15:48:59.154Z,5.30
2019-06-26T15:51:28.890Z,5.17
2019-06-26T15:54:00.063Z,5.70
2019-06-26T15:56:30.878Z,4.87
2019-06-26T15:59:00.910Z,5.30
2019-06-26T16:01:30.583Z,4.90
2019-06-26T16:04:00.272Z,4.65
2019-06-26T16:06:29.957Z,4.92
2019-06-26T16:09:00.617Z,5.08
2019-06-26T16:11:30.657Z,5.62
2019-06-26T16:14:00.399Z,4.42
2019-06-26T16:16:30.757Z,4.87
2019-06-26T16:19:05.013Z,5.37
2019-06-26T16:21:34.678Z,4.00
2019-06-26T16:24:04.398Z,4.60
2019-06-26T16:26:34.073Z,4.50
2019-06-26T16:29:03.781Z,4.55
2019-06-26T16:31:33.510Z,4.72
2019-06-26T16:34:04.417Z,4.60
2019-06-26T16:36:34.169Z,4.22
2019-06-26T16:39:05.342Z,4.80
2019-06-26T16:41:35.100Z,4.50
2019-06-26T16:44:06.144Z,3.90
2019-06-26T16:46:36.769Z,4.35
2019-06-26T16:49:06.432Z,4.50
2019-06-26T16:51:36.118Z,4.12
2019-06-26T16:54:05.781Z,3.80
2019-06-26T16:56:35.746Z,4.20
2019-06-26T16:59:05.410Z,3.45
2019-06-26T17:01:35.085Z,3.90
2019-06-26T17:04:04.758Z,4.10
2019-06-26T17:06:34.434Z,4.17
2019-06-26T17:09:05.492Z,3.90
2019-06-26T17:11:35.155Z,3.92
2019-06-26T17:14:04.839Z,3.80
2019-06-26T17:16:34.607Z,3.87
2019-06-26T17:19:04.305Z,3.83
2019-06-26T17:21:33.968Z,3.92
2019-06-26T17:24:03.679Z,4.35
2019-06-26T17:26:33.426Z,4.28
2019-06-26T17:29:03.102Z,4.20
2019-06-26T17:31:32.771Z,3.75
2019-06-26T17:34:02.480Z,3.67
2019-06-26T17:36:32.434Z,3.83
2019-06-26T17:39:02.236Z,3.37
2019-06-26T17:41:33.598Z,4.03
2019-06-26T17:44:03.513Z,3.52
2019-06-26T17:46:33.279Z,3.70
2019-06-26T17:49:02.969Z,4.08
2019-06-26T17:51:32.637Z,3.58
2019-06-26T17:54:02.422Z,3.87
2019-06-26T17:56:32.394Z,4.37
2019-06-26T17:59:02.090Z,3.98
2019-06-26T18:01:31.783Z,3.70
2019-06-26T18:04:01.534Z,3.98
2019-06-26T18:06:31.459Z,3.83
2019-06-26T18:09:01.481Z,4.30
2019-06-26T18:11:32.770Z,3.90
2019-06-26T18:14:02.762Z,3.77
2019-06-26T18:16:32.412Z,3.50
2019-06-26T18:19:02.149Z,4.10
2019-06-26T18:21:33.076Z,4.25
2019-06-26T18:24:02.741Z,4.62
2019-06-26T18:26:32.423Z,3.95
2019-06-26T18:29:02.213Z,3.87
2019-06-26T18:31:32.192Z,4.33
2019-06-26T18:34:01.852Z,4.12
2019-06-26T18:36:33.617Z,4.22
2019-06-26T18:39:03.275Z,4.45
2019-06-26T18:41:33.018Z,4.45
2019-06-26T18:44:02.701Z,4.80
2019-06-26T18:46:32.394Z,5.47
2019-06-26T18:49:02.070Z,4.30
2019-06-26T18:51:31.747Z,4.30
2019-06-26T18:54:01.808Z,4.83
2019-06-26T18:56:31.472Z,3.80
2019-06-26T18:59:01.287Z,5.65
2019-06-26T19:01:31.013Z,4.65
2019-06-26T19:04:00.708Z,4.67
2019-06-26T19:06:30.648Z,4.50
2019-06-26T19:09:39.390Z,4.53
2019-06-26T19:12:18.571Z,4.12
2019-06-26T19:15:11.647Z,5.12
2019-06-26T19:18:16.434Z,5.35
2019-06-26T19:21:11.755Z,5.85
2019-06-26T19:23:41.875Z,6.67
2019-06-26T19:26:39.898Z,5.55
2019-06-26T19:29:46.232Z,6.30
2019-06-26T19:36:18.550Z,5.67
2019-06-26T19:39:36.442Z,6.20
2019-06-26T19:42:32.339Z,6.28
2019-06-26T19:45:10.877Z,6.37
2019-06-26T19:47:40.575Z,5.70
2019-06-26T19:50:10.253Z,6.60
2019-06-26T19:52:40.940Z,6.65
2019-06-26T19:55:10.664Z,6.83
2019-06-26T19:57:40.523Z,6.75
2019-06-26T20:00:10.545Z,6.30
2019-06-26T20:02:43.287Z,6.42
2019-06-26T20:05:13.089Z,6.42
2019-06-26T20:07:45.880Z,5.97
2019-06-26T20:10:15.779Z,5.92
2019-06-26T20:12:45.476Z,6.03
2019-06-26T20:15:15.249Z,6.12
2019-06-26T20:17:44.994Z,6.20
2019-06-26T20:20:24.283Z,5.67
2019-06-26T20:22:54.161Z,6.45
2019-06-26T20:25:23.888Z,6.05
2019-06-26T20:27:56.940Z,5.92
2019-06-26T20:30:28.380Z,6.60
2019-06-26T20:32:58.057Z,5.92
2019-06-26T20:35:27.741Z,6.62
2019-06-26T20:37:57.430Z,6.45
2019-06-26T20:40:27.224Z,7.00
2019-06-26T20:42:56.939Z,6.55
2019-06-26T20:45:26.615Z,6.28
2019-06-26T20:47:56.580Z,6.15
2019-06-26T20:50:26.701Z,5.92
2019-06-26T20:52:56.691Z,6.17
2019-06-26T20:55:26.628Z,6.55
2019-06-26T20:57:56.428Z,6.30
2019-06-26T21:00:26.096Z,5.95
2019-06-26T21:02:56.034Z,6.33
2019-06-26T21:05:28.711Z,6.58
2019-06-26T21:07:57.080Z,6.07
2019-06-26T21:10:26.778Z,6.28
2019-06-26T21:12:57.806Z,5.83
2019-06-26T21:15:27.552Z,6.67
2019-06-26T21:17:57.680Z,6.40
2019-06-26T21:20:27.591Z,5.80
2019-06-26T21:22:57.772Z,5.93
2019-06-26T21:25:27.509Z,6.30
2019-06-26T21:27:57.311Z,6.20
2019-06-26T21:30:27.029Z,5.55
2019-06-26T21:32:56.786Z,5.92
2019-06-26T21:35:27.440Z,5.85
2019-06-26T21:37:57.473Z,5.83
2019-06-26T21:40:29.963Z,5.92
2019-06-26T21:42:59.633Z,6.57
2019-06-26T21:45:29.485Z,6.47
2019-06-26T21:47:59.230Z,6.23
2019-06-26T21:50:29.336Z,6.72
2019-06-26T21:52:59.493Z,5.90
2019-06-26T21:55:34.699Z,6.10
2019-06-26T21:58:20.336Z,6.00
2019-06-26T22:01:08.276Z,6.30
2019-06-26T22:03:56.089Z,6.15
2019-06-26T22:06:30.122Z,6.55
2019-06-26T22:09:13.592Z,5.95
2019-06-26T22:11:44.165Z,6.85
2019-06-26T22:14:37.278Z,6.47
2019-06-26T22:17:59.576Z,5.95
2019-06-26T22:21:39.747Z,6.05
2019-06-26T22:24:34.229Z,5.95
2019-06-26T22:28:01.039Z,4.77
2019-06-26T22:36:04.472Z,4.40
2019-06-26T22:42:49.797Z,4.77
2019-06-26T22:52:46.591Z,5.00
2019-06-26T22:55:21.716Z,4.80
2019-06-26T22:57:56.210Z,5.53
2019-06-26T23:00:32.759Z,4.60
2019-06-26T23:03:08.592Z,4.73
2019-06-26T23:05:45.426Z,4.73
2019-06-26T23:08:20.172Z,4.90
2019-06-26T23:10:59.129Z,4.77
2019-06-26T23:13:33.326Z,5.53
2019-06-26T23:16:08.259Z,5.47
2019-06-26T23:18:43.821Z,4.30
2019-06-26T23:21:18.487Z,5.80
2019-06-26T23:23:53.556Z,4.87
2019-06-26T23:26:28.966Z,5.47
2019-06-26T23:29:03.844Z,5.40
2019-06-26T23:31:37.961Z,5.17
2019-06-26T23:34:12.504Z,5.40
2019-06-26T23:36:46.954Z,6.00
2019-06-26T23:39:21.866Z,4.70
2019-06-26T23:41:56.844Z,5.87
2019-06-26T23:44:31.531Z,5.27
2019-06-26T23:47:05.966Z,5.77
2019-06-26T23:49:41.166Z,5.40
2019-06-26T23:52:17.690Z,5.57
2019-06-26T23:54:52.608Z,4.73
2019-06-26T23:57:29.136Z,5.60
